Time;durP1;ratioP1;P1;durP2;ratioP2;P2;SDS_P1;SDS_P2;PMS_P1;PMS_P2;Temp;Humidity;BMP_temperature;BMP_pressure;BME280_temperature;BME280_humidity;BME280_pressure;Samples;Min_cycle;Max_cycle;Signal;HPM_P1;HPM_P2
2024/03/17 00:01:43;;;;;;;3.03;1.70;;;11.60;99.90;;;;;;5026605;28;20038;-69
2024/03/17 00:04:09;;;;;;;2.88;1.40;;;11.30;99.90;;;;;;5024864;28;20106;-69
2024/03/17 00:06:35;;;;;;;2.40;1.50;;;;;;;;;;5030626;28;20169;-68
2024/03/17 00:09:06;;;;;;;2.00;1.40;;;11.20;99.90;;;;;;5039922;28;20022;-70
2024/03/17 00:11:35;;;;;;;2.38;1.75;;;11.30;99.90;;;;;;5037983;28;20020;-68
2024/03/17 00:14:01;;;;;;;;;;;11.30;99.10;;;;;;5026919;28;20242;-69
2024/03/17 00:16:27;;;;;;;2.05;1.10;;;11.20;99.90;;;;;;5028669;28;20219;-67
2024/03/17 00:18:53;;;;;;;1.05;1.00;;;11.30;99.90;;;;;;5040931;28;20029;-67
2024/03/17 00:21:19;;;;;;;1.75;1.00;;;11.30;99.90;;;;;;5040939;28;20291;-69
2024/03/17 00:23:51;;;;;;;2.58;1.00;;;11.30;98.60;;;;;;5032657;28;20033;-68
2024/03/17 00:26:19;;;;;;;1.30;1.20;;;11.30;99.90;;;;;;5024838;28;20358;-67
2024/03/17 00:28:48;;;;;;;1.58;0.98;;;11.40;99.90;;;;;;5018740;28;20037;-67
2024/03/17 00:31:15;;;;;;;3.10;1.35;;;11.40;99.90;;;;;;5025455;28;20030;-68
2024/03/17 00:33:42;;;;;;;1.58;1.27;;;11.30;98.50;;;;;;5029741;28;20025;-68
2024/03/17 00:36:08;;;;;;;1.58;1.17;;;;;;;;;;5024453;28;20037;-68
2024/03/17 00:38:34;;;;;;;1.38;1.27;;;11.20;99.90;;;;;;5036758;28;20349;-67
2024/03/17 00:41:02;;;;;;;2.50;1.40;;;11.20;99.90;;;;;;5024289;28;20079;-67
2024/03/17 00:43:27;;;;;;;1.83;1.60;;;11.20;99.90;;;;;;5032495;28;20330;-68
2024/03/17 00:45:53;;;;;;;1.50;1.38;;;;;;;;;;5033485;28;20045;-68
2024/03/17 00:48:19;;;;;;;1.85;1.38;;;11.00;99.90;;;;;;5028381;28;20663;-67
2024/03/17 00:50:45;;;;;;;1.88;1.65;;;11.10;99.90;;;;;;5031024;28;20037;-68
2024/03/17 00:53:11;;;;;;;2.30;1.70;;;11.10;99.90;;;;;;5038365;28;20034;-69
2024/03/17 00:55:37;;;;;;;2.63;1.83;;;;;;;;;;5039041;28;20029;-68
2024/03/17 00:58:03;;;;;;;1.83;1.60;;;11.10;99.00;;;;;;5037309;28;20334;-68
2024/03/17 01:00:29;;;;;;;2.95;1.60;;;8.50;98.30;;;;;;5037913;28;20139;-69
2024/03/17 01:02:55;;;;;;;2.15;1.50;;;11.20;99.90;;;;;;5026190;28;20109;-68
2024/03/17 01:05:21;;;;;;;4.45;1.83;;;10.90;99.90;;;;;;5025959;28;20037;-68
2024/03/17 01:07:48;;;;;;;2.05;1.85;;;;;;;;;;5023466;28;20080;-67
2024/03/17 01:10:14;;;;;;;2.50;1.95;;;11.20;99.90;;;;;;5034751;28;20048;-69
2024/03/17 01:12:40;;;;;;;2.40;2.10;;;10.90;99.90;;;;;;5029183;28;20136;-68
2024/03/17 01:15:06;;;;;;;2.58;1.90;;;;;;;;;;5038228;28;20033;-68
2024/03/17 01:17:33;;;;;;;2.17;1.60;;;;;;;;;;5036458;28;20436;-68
2024/03/17 01:19:58;;;;;;;2.72;1.73;;;10.90;99.90;;;;;;5031017;28;20385;-67
2024/03/17 01:22:24;;;;;;;3.03;2.25;;;10.80;99.90;;;;;;5020409;28;20049;-70
2024/03/17 01:24:50;;;;;;;2.08;1.80;;;11.10;99.90;;;;;;5018926;28;20030;-67
2024/03/17 01:27:16;;;;;;;3.67;2.03;;;11.00;99.90;;;;;;5033835;28;20056;-71
2024/03/17 01:29:43;;;;;;;2.28;1.92;;;10.90;99.90;;;;;;5031140;28;20029;-66
2024/03/17 01:32:09;;;;;;;4.35;2.60;;;10.80;99.90;;;;;;5022847;28;20029;-70
2024/03/17 01:34:36;;;;;;;2.72;2.10;;;;;;;;;;5037410;28;20045;-67
2024/03/17 01:37:02;;;;;;;4.53;1.88;;;;;;;;;;5026681;28;20050;-67
2024/03/17 01:39:27;;;;;;;4.13;2.20;;;10.70;99.90;;;;;;5028549;28;20053;-69
2024/03/17 01:41:53;;;;;;;3.45;2.25;;;10.70;99.90;;;;;;5038845;28;20226;-68
2024/03/17 01:44:27;;;;;;;2.40;2.10;;;10.70;99.90;;;;;;5038947;28;20099;-68
2024/03/17 01:46:53;;;;;;;3.15;2.45;;;10.90;99.90;;;;;;5038633;28;20277;-68
2024/03/17 01:49:21;;;;;;;2.88;2.00;;;10.80;99.90;;;;;;5020224;28;20037;-70
2024/03/17 01:51:49;;;;;;;2.72;2.20;;;10.70;99.90;;;;;;5026710;28;20109;-68
2024/03/17 01:54:16;;;;;;;2.33;1.98;;;10.60;99.90;;;;;;5035379;28;20033;-66
2024/03/17 01:56:43;;;;;;;3.63;2.10;;;10.60;99.90;;;;;;5022295;28;20061;-66
2024/03/17 01:59:09;;;;;;;3.47;2.58;;;10.40;99.90;;;;;;5030263;28;20032;-67
2024/03/17 02:01:38;;;;;;;4.80;2.47;;;10.60;99.90;;;;;;5033346;28;20096;-68
2024/03/17 02:04:05;;;;;;;3.58;2.50;;;10.50;99.90;;;;;;5021880;28;20029;-64
2024/03/17 02:06:31;;;;;;;2.40;2.00;;;10.40;99.90;;;;;;5020813;28;20034;-64
2024/03/17 02:08:57;;;;;;;2.17;1.90;;;10.40;99.90;;;;;;5015485;28;20037;-66
2024/03/17 02:11:28;;;;;;;3.40;2.35;;;10.50;99.90;;;;;;5023653;28;20033;-65
2024/03/17 02:13:55;;;;;;;2.38;2.00;;;10.40;99.90;;;;;;5037413;28;20056;-65
2024/03/17 02:16:21;;;;;;;2.72;2.17;;;10.40;99.90;;;;;;5034025;28;20053;-64
2024/03/17 02:18:47;;;;;;;2.40;2.10;;;;;;;;;;5041638;28;20029;-64
2024/03/17 02:21:14;;;;;;;3.33;2.30;;;10.40;99.90;;;;;;5028532;28;20326;-67
2024/03/17 02:23:43;;;;;;;2.83;1.95;;;10.30;99.90;;;;;;5022102;28;20029;-69
2024/03/17 02:26:09;;;;;;;1.88;1.75;;;;;;;;;;5022155;28;20034;-63
2024/03/17 02:28:39;;;;;;;3.58;2.50;;;10.00;99.90;;;;;;5030475;28;20360;-64
2024/03/17 02:31:08;;;;;;;3.72;2.25;;;10.30;99.90;;;;;;5020201;28;20268;-64
2024/03/17 02:33:34;;;;;;;3.05;2.20;;;10.10;99.90;;;;;;5029945;28;20040;-65
2024/03/17 02:36:00;;;;;;;2.38;2.17;;;;;;;;;;5032932;28;20101;-64
2024/03/17 02:41:11;;;;;;;2.10;1.90;;;;;;;;;;5042906;28;20041;-66
2024/03/17 02:43:37;;;;;;;2.67;2.47;;;9.80;99.90;;;;;;5038953;28;20077;-67
2024/03/17 02:46:07;;;;;;;2.70;2.22;;;;;;;;;;5030461;28;20306;-68
2024/03/17 02:48:36;;;;;;;3.90;2.60;;;10.00;99.90;;;;;;5030079;28;20100;-67
2024/03/17 02:51:02;;;;;;;3.65;2.30;;;;;;;;;;5026100;28;20038;-66
2024/03/17 02:53:28;;;;;;;3.60;2.25;;;9.30;99.90;;;;;;5032047;28;20406;-67
2024/03/17 02:55:54;;;;;;;2.75;2.38;;;9.40;99.90;;;;;;5032976;28;20065;-66
2024/03/17 02:58:25;;;;;;;2.90;2.60;;;9.30;99.90;;;;;;5036229;28;20071;-68
2024/03/17 03:00:53;;;;;;;2.42;2.10;;;;;;;;;;5039748;28;20041;-68
2024/03/17 03:03:19;;;;;;;2.35;2.13;;;;;;;;;;5021513;28;20037;-67
2024/03/17 03:05:45;;;;;;;2.85;2.42;;;9.00;99.90;;;;;;5039041;28;20033;-67
2024/03/17 03:08:11;;;;;;;3.30;2.20;;;;;;;;;;5029799;28;20356;-67
2024/03/17 03:10:38;;;;;;;3.88;2.60;;;8.90;99.90;;;;;;5038798;28;20032;-68
2024/03/17 03:13:04;;;;;;;3.05;2.40;;;;;;;;;;5024296;28;20046;-67
2024/03/17 03:15:32;;;;;;;4.22;2.42;;;8.90;99.90;;;;;;5040476;28;20017;-67
2024/03/17 03:17:58;;;;;;;2.58;2.30;;;;;;;;;;5037470;28;20369;-67
2024/03/17 03:20:25;;;;;;;2.67;2.20;;;;;;;;;;5039310;28;20409;-67
2024/03/17 03:22:51;;;;;;;3.45;2.42;;;8.90;99.90;;;;;;5030059;28;20022;-68
2024/03/17 03:25:17;;;;;;;4.22;2.28;;;;;;;;;;5038018;28;20064;-67
2024/03/17 03:27:43;;;;;;;2.38;2.00;;;;;;;;;;5028638;28;20049;-67
2024/03/17 03:30:09;;;;;;;3.03;2.42;;;;;;;;;;5013898;28;20048;-67
2024/03/17 03:32:38;;;;;;;2.45;2.20;;;8.80;99.90;;;;;;5034324;28;20230;-67
2024/03/17 03:35:05;;;;;;;2.72;2.38;;;8.50;99.90;;;;;;5020252;28;20314;-67
2024/03/17 03:37:32;;;;;;;2.85;2.40;;;8.50;99.90;;;;;;5023467;28;20048;-66
2024/03/17 03:39:58;;;;;;;3.53;2.50;;;8.40;99.90;;;;;;5025337;28;20051;-66
2024/03/17 03:42:24;;;;;;;3.38;2.40;;;8.40;99.90;;;;;;5032057;28;20108;-66
2024/03/17 03:44:50;;;;;;;3.28;1.85;;;8.40;99.90;;;;;;5030000;28;20065;-67
2024/03/17 03:47:15;;;;;;;2.15;1.70;;;8.40;99.90;;;;;;5017106;28;20038;-67
2024/03/17 03:49:41;;;;;;;2.22;1.52;;;8.50;99.90;;;;;;5026730;28;20026;-67
2024/03/17 03:52:07;;;;;;;3.05;2.60;;;8.30;99.90;;;;;;5022163;28;20045;-68
2024/03/17 03:54:34;;;;;;;2.25;1.75;;;8.30;99.90;;;;;;5020980;28;20061;-66
2024/03/17 03:57:03;;;;;;;3.78;2.60;;;8.20;99.90;;;;;;5030240;28;20325;-67
2024/03/17 03:59:29;;;;;;;5.32;2.75;;;8.20;99.90;;;;;;5024517;28;20081;-67
2024/03/17 04:01:54;;;;;;;4.32;2.92;;;8.20;99.90;;;;;;5033966;28;20314;-68
2024/03/17 04:04:21;;;;;;;4.05;3.15;;;8.10;99.90;;;;;;5022116;28;20033;-68
2024/03/17 04:06:53;;;;;;;3.38;2.70;;;8.00;99.90;;;;;;5021502;28;20033;-68
2024/03/17 04:09:20;;;;;;;3.30;2.25;;;8.10;99.90;;;;;;5027761;28;20025;-68
2024/03/17 04:11:45;;;;;;;2.67;2.13;;;8.00;99.90;;;;;;5031784;28;20037;-69
2024/03/17 04:14:11;;;;;;;2.10;1.88;;;8.00;99.90;;;;;;5026519;28;20325;-67
2024/03/17 04:16:37;;;;;;;2.75;2.15;;;8.00;99.90;;;;;;5033709;28;20033;-65
2024/03/17 04:19:02;;;;;;;3.88;2.28;;;8.00;99.90;;;;;;5032003;28;20025;-65
2024/03/17 04:21:28;;;;;;;3.53;2.60;;;8.00;99.90;;;;;;5028275;28;20048;-64
2024/03/17 04:23:54;;;;;;;4.20;2.65;;;7.90;99.90;;;;;;5021285;28;20052;-64
2024/03/17 04:26:19;;;;;;;2.65;2.05;;;7.90;99.90;;;;;;5021076;28;20336;-64
2024/03/17 04:28:45;;;;;;;2.60;2.17;;;7.80;99.90;;;;;;5020551;28;20029;-64
2024/03/17 04:31:11;;;;;;;2.92;1.90;;;7.70;99.90;;;;;;5020747;28;20035;-65
2024/03/17 04:33:38;;;;;;;6.32;2.45;;;7.70;99.90;;;;;;5027370;28;20041;-66
2024/03/17 04:36:04;;;;;;;6.15;3.05;;;7.60;99.90;;;;;;5031119;28;20096;-64
2024/03/17 04:38:29;;;;;;;4.55;1.98;;;7.60;99.90;;;;;;5019942;28;20026;-66
2024/03/17 04:41:04;;;;;;;3.67;2.33;;;7.30;99.90;;;;;;5027887;28;20092;-64
2024/03/17 04:43:33;;;;;;;6.53;2.22;;;7.50;99.90;;;;;;5035886;28;20041;-65
2024/03/17 04:46:04;;;;;;;2.78;1.85;;;7.50;99.90;;;;;;5020872;28;20041;-64
2024/03/17 04:48:31;;;;;;;3.47;3.08;;;7.40;99.90;;;;;;5020725;28;20265;-65
2024/03/17 04:50:57;;;;;;;5.30;2.90;;;7.30;99.90;;;;;;5022732;28;20340;-65
2024/03/17 04:53:24;;;;;;;3.95;2.22;;;7.50;99.90;;;;;;5022534;28;20026;-65
2024/03/17 04:56:01;;;;;;;3.90;2.20;;;7.30;99.90;;;;;;5024024;28;20041;-65
2024/03/17 04:58:27;;;;;;;2.47;1.65;;;7.20;99.90;;;;;;5019457;28;20034;-65
2024/03/17 05:00:52;;;;;;;3.15;2.22;;;7.20;99.90;;;;;;5019685;28;20112;-64
2024/03/17 05:03:18;;;;;;;2.92;2.10;;;7.20;99.90;;;;;;5019748;28;20036;-63
2024/03/17 05:05:44;;;;;;;1.52;1.42;;;7.10;99.90;;;;;;5028559;28;20044;-64
2024/03/17 05:08:09;;;;;;;2.50;2.08;;;7.10;99.90;;;;;;5026736;28;20030;-63
2024/03/17 05:10:35;;;;;;;3.65;2.10;;;7.00;99.90;;;;;;5021811;28;20057;-64
2024/03/17 05:13:01;;;;;;;3.67;2.53;;;6.90;99.90;;;;;;5028178;28;20040;-63
2024/03/17 05:15:36;;;;;;;4.20;2.33;;;7.10;99.90;;;;;;5014316;28;20076;-66
2024/03/17 05:18:02;;;;;;;3.30;2.53;;;6.80;99.90;;;;;;5019011;28;20153;-65
2024/03/17 05:20:27;;;;;;;4.07;2.47;;;6.80;99.90;;;;;;5027214;28;20029;-66
2024/03/17 05:22:53;;;;;;;5.78;1.65;;;6.80;99.90;;;;;;5022789;28;20096;-65
2024/03/17 05:25:19;;;;;;;6.82;2.60;;;6.70;99.90;;;;;;5034206;28;20018;-64
2024/03/17 05:27:44;;;;;;;3.13;1.63;;;6.70;99.40;;;;;;5020028;28;20353;-65
2024/03/17 05:30:10;;;;;;;3.85;2.40;;;6.80;99.90;;;;;;5020202;28;20314;-67
2024/03/17 05:32:38;;;;;;;3.17;1.58;;;;;;;;;;5020740;28;20029;-67
2024/03/17 05:35:04;;;;;;;3.28;2.58;;;6.50;97.90;;;;;;5032890;28;20125;-67
2024/03/17 05:37:33;;;;;;;2.65;1.90;;;6.50;99.90;;;;;;5026947;28;20022;-68
2024/03/17 05:39:58;;;;;;;;;;;6.50;98.40;;;;;;5045532;28;20333;-67
2024/03/17 05:42:24;;;;;;;8.10;3.15;;;6.50;99.90;;;;;;5039792;28;19909;-66
2024/03/17 05:44:50;;;;;;;3.15;1.98;;;6.50;99.90;;;;;;5024434;28;20026;-65
2024/03/17 05:47:18;;;;;;;3.55;2.58;;;6.50;98.30;;;;;;5028627;28;20229;-68
2024/03/17 05:49:47;;;;;;;6.35;2.60;;;6.50;98.30;;;;;;5042990;28;20067;-67
2024/03/17 05:52:13;;;;;;;3.95;2.38;;;6.50;98.50;;;;;;5038162;28;20061;-66
2024/03/17 05:54:39;;;;;;;5.68;2.70;;;6.50;98.50;;;;;;5030884;28;20076;-69
2024/03/17 05:57:06;;;;;;;3.65;2.67;;;6.50;99.90;;;;;;5033465;28;20025;-65
2024/03/17 05:59:32;;;;;;;3.45;2.03;;;6.50;98.10;;;;;;5025116;28;20333;-65
2024/03/17 06:01:59;;;;;;;5.38;2.40;;;6.50;98.30;;;;;;5037171;28;20037;-67
2024/03/17 06:04:25;;;;;;;5.18;2.58;;;6.50;98.20;;;;;;5029057;28;20218;-66
2024/03/17 06:06:51;;;;;;;3.45;2.63;;;;;;;;;;5038662;28;20033;-66
2024/03/17 06:09:19;;;;;;;3.45;1.90;;;6.50;97.90;;;;;;5028661;28;20033;-68
2024/03/17 06:11:47;;;;;;;2.80;2.33;;;6.60;99.90;;;;;;5028118;28;20018;-66
2024/03/17 06:14:13;;;;;;;2.15;1.88;;;6.70;99.90;;;;;;5031174;28;20029;-66
2024/03/17 06:16:39;;;;;;;3.55;2.60;;;6.80;99.90;;;;;;5022751;28;20115;-67
2024/03/17 06:19:05;;;;;;;4.80;1.92;;;6.60;97.30;;;;;;5022088;28;20041;-66
2024/03/17 06:21:31;;;;;;;5.85;2.85;;;6.80;96.50;;;;;;5022485;28;20065;-66
2024/03/17 06:23:57;;;;;;;4.93;3.00;;;6.90;99.90;;;;;;5037981;28;20029;-67
2024/03/17 06:26:23;;;;;;;3.67;2.40;;;6.80;99.90;;;;;;5032752;28;20095;-67
2024/03/17 06:28:52;;;;;;;4.10;2.58;;;6.90;99.90;;;;;;5027499;28;20026;-67
2024/03/17 06:31:17;;;;;;;7.32;2.53;;;6.90;95.60;;;;;;5021198;28;20363;-69
2024/03/17 06:33:43;;;;;;;5.03;2.97;;;6.90;95.10;;;;;;5030590;28;20029;-68
2024/03/17 06:36:08;;;;;;;2.95;2.05;;;7.10;99.90;;;;;;5026348;28;20045;-68
2024/03/17 06:38:34;;;;;;;6.75;2.63;;;7.20;99.90;;;;;;5023272;28;20100;-66
2024/03/17 06:41:00;;;;;;;4.65;3.10;;;7.20;99.90;;;;;;5025036;28;20114;-68
2024/03/17 06:43:26;;;;;;;1.38;1.17;;;7.20;99.90;;;;;;5034077;28;20026;-66
2024/03/17 06:45:58;;;;;;;6.45;2.50;;;7.30;99.90;;;;;;5028267;28;20045;-65
2024/03/17 06:48:27;;;;;;;8.05;3.03;;;7.20;92.50;;;;;;5029464;28;20028;-64
2024/03/17 06:50:54;;;;;;;;;;;7.30;92.40;;;;;;5036144;28;20044;-64
2024/03/17 06:53:23;;;;;;;2.78;1.80;;;7.70;99.90;;;;;;5029716;28;19921;-64
2024/03/17 06:55:59;;;;;;;9.07;3.97;;;7.50;91.50;;;;;;5023144;28;20322;-64
2024/03/17 06:58:27;;;;;;;4.78;2.08;;;7.60;90.90;;;;;;5029946;28;20041;-66
2024/03/17 07:00:57;;;;;;;4.57;1.80;;;7.70;90.60;;;;;;5037117;28;20068;-67
2024/03/17 07:03:30;;;;;;;4.40;3.00;;;7.80;89.70;;;;;;5037177;28;20221;-66
2024/03/17 07:05:58;;;;;;;4.45;2.17;;;7.80;89.40;;;;;;5033249;28;20226;-65
2024/03/17 07:08:25;;;;;;;2.97;2.08;;;7.90;89.50;;;;;;5037765;28;20579;-66
2024/03/17 07:10:57;;;;;;;3.42;1.90;;;8.00;89.30;;;;;;5032639;28;20017;-64
2024/03/17 07:13:23;;;;;;;3.78;1.95;;;8.10;89.50;;;;;;5032934;28;20033;-65
2024/03/17 07:15:49;;;;;;;7.20;3.35;;;8.10;89.40;;;;;;5032612;28;20318;-66
2024/03/17 07:18:15;;;;;;;5.88;3.05;;;8.20;88.10;;;;;;5027999;28;20072;-65
2024/03/17 07:20:41;;;;;;;4.18;2.33;;;8.30;90.30;;;;;;5025322;28;20237;-68
2024/03/17 07:23:07;;;;;;;5.63;2.33;;;8.40;88.20;;;;;;5029507;28;20018;-67
2024/03/17 07:25:32;;;;;;;11.82;2.75;;;8.50;91.30;;;;;;5032970;28;20376;-67
2024/03/17 07:27:58;;;;;;;5.25;2.50;;;;;;;;;;5022535;28;20038;-65
2024/03/17 07:30:24;;;;;;;2.50;1.90;;;;;;;;;;5030716;28;20311;-66
2024/03/17 07:32:50;;;;;;;3.67;2.42;;;8.90;93.30;;;;;;5031962;28;20040;-65
2024/03/17 07:35:16;;;;;;;3.80;1.92;;;8.80;93.90;;;;;;5022872;28;20033;-66
2024/03/17 07:37:42;;;;;;;5.88;3.00;;;;;;;;;;5021878;28;20032;-66
2024/03/17 07:40:10;;;;;;;4.63;1.98;;;9.00;78.20;;;;;;5025553;28;20050;-67
2024/03/17 07:42:36;;;;;;;3.38;1.80;;;9.10;77.10;;;;;;5025972;28;20037;-68
2024/03/17 07:45:04;;;;;;;3.97;2.05;;;9.00;81.70;;;;;;5023043;28;20089;-67
2024/03/17 07:47:35;;;;;;;4.45;2.10;;;;;;;;;;5032249;28;20033;-67
2024/03/17 07:50:05;;;;;;;5.10;1.70;;;9.20;76.60;;;;;;5033930;28;20033;-68
2024/03/17 07:52:34;;;;;;;3.85;1.48;;;9.40;91.90;;;;;;5032199;28;20010;-72
2024/03/17 07:55:00;;;;;;;4.55;2.20;;;;;;;;;;5034976;28;20055;-68
2024/03/17 07:57:26;;;;;;;3.53;2.17;;;9.30;75.70;;;;;;5037162;28;20034;-68
2024/03/17 07:59:52;;;;;;;4.78;2.55;;;9.50;75.60;;;;;;5018375;28;20468;-68
2024/03/17 08:02:18;;;;;;;5.15;1.63;;;9.50;94.20;;;;;;5037339;28;20025;-68
2024/03/17 08:04:47;;;;;;;4.50;2.00;;;9.60;73.50;;;;;;5030543;28;20037;-67
2024/03/17 08:07:13;;;;;;;4.18;1.50;;;9.60;73.80;;;;;;5020497;28;20036;-67
2024/03/17 08:09:39;;;;;;;3.85;2.10;;;9.70;73.10;;;;;;5027722;28;20072;-67
2024/03/17 08:12:05;;;;;;;3.42;1.42;;;9.80;72.40;;;;;;5026238;28;20037;-65
2024/03/17 08:14:31;;;;;;;5.45;1.90;;;9.80;72.50;;;;;;5025681;28;20041;-66
2024/03/17 08:16:57;;;;;;;4.72;2.13;;;9.90;72.10;;;;;;5023385;28;20469;-65
2024/03/17 08:19:22;;;;;;;7.45;1.30;;;10.00;70.60;;;;;;5014942;28;20026;-67
2024/03/17 08:21:48;;;;;;;2.28;0.88;;;10.10;68.30;;;;;;5022630;28;20030;-67
2024/03/17 08:24:14;;;;;;;8.63;2.08;;;10.20;68.40;;;;;;5024369;28;20093;-67
2024/03/17 08:26:45;;;;;;;3.28;1.90;;;10.20;68.60;;;;;;5020388;28;20318;-66
2024/03/17 08:29:11;;;;;;;9.50;3.20;;;10.40;67.20;;;;;;5028703;28;20151;-66
2024/03/17 08:31:37;;;;;;;4.65;2.15;;;10.40;65.00;;;;;;5023814;28;20021;-67
2024/03/17 08:34:03;;;;;;;4.40;1.55;;;10.30;64.20;;;;;;5023525;28;20340;-67
2024/03/17 08:36:29;;;;;;;4.63;2.00;;;10.30;64.50;;;;;;5032517;28;20096;-66
2024/03/17 08:38:55;;;;;;;4.60;1.88;;;10.30;64.80;;;;;;5035633;28;20479;-66
2024/03/17 08:41:20;;;;;;;3.65;1.83;;;10.30;64.60;;;;;;5038832;28;20259;-65
2024/03/17 08:43:46;;;;;;;3.50;1.25;;;10.30;65.10;;;;;;5022456;28;20318;-66
2024/03/17 08:46:13;;;;;;;6.07;1.85;;;10.40;64.50;;;;;;5032507;28;20033;-66
2024/03/17 08:48:41;;;;;;;2.10;1.30;;;10.40;64.50;;;;;;5031252;28;20040;-66
2024/03/17 08:51:08;;;;;;;2.70;1.73;;;10.60;63.10;;;;;;5028329;28;20042;-65
2024/03/17 08:53:34;;;;;;;2.85;1.38;;;10.50;63.50;;;;;;5022408;28;20029;-65
2024/03/17 08:56:00;;;;;;;4.13;1.50;;;10.60;63.30;;;;;;5028566;28;20028;-66
2024/03/17 08:58:26;;;;;;;5.57;1.40;;;10.70;83.00;;;;;;5020615;28;20053;-65
2024/03/17 09:00:52;;;;;;;4.93;2.08;;;10.70;62.10;;;;;;5028890;28;20223;-65
2024/03/17 09:03:18;;;;;;;4.05;1.73;;;10.70;62.80;;;;;;5031959;28;20049;-65
2024/03/17 09:05:48;;;;;;;5.03;1.20;;;10.80;83.70;;;;;;5029507;28;20048;-66
2024/03/17 09:08:21;;;;;;;;;;;10.90;61.80;;;;;;5035825;28;20043;-66
2024/03/17 09:10:49;;;;;;;4.75;1.95;;;11.00;61.70;;;;;;5020793;28;20229;-67
2024/03/17 09:13:19;;;;;;;4.30;1.77;;;11.30;80.30;;;;;;5026949;28;20050;-67
2024/03/17 09:15:59;;;;;;;5.63;1.45;;;11.30;80.30;;;;;;5036355;28;20116;-68
2024/03/17 09:18:28;;;;;;;4.15;1.60;;;11.40;78.50;;;;;;5020112;28;20037;-69
2024/03/17 09:21:02;;;;;;;;;;;11.50;59.00;;;;;;5022549;28;20084;-66
2024/03/17 09:23:28;;;;;;;7.15;2.13;;;11.30;59.50;;;;;;5031470;28;19917;-67
2024/03/17 09:25:57;;;;;;;5.32;1.67;;;10.90;61.20;;;;;;5031420;28;20042;-67
2024/03/17 09:28:23;;;;;;;7.07;1.73;;;;;;;;;;5035844;28;20495;-68
2024/03/17 09:30:49;;;;;;;2.58;1.23;;;;;;;;;;5031512;28;20037;-68
2024/03/17 09:33:15;;;;;;;6.35;1.60;;;11.40;75.90;;;;;;5020518;28;20030;-66
2024/03/17 09:35:42;;;;;;;5.93;1.70;;;11.30;75.20;;;;;;5020435;28;20079;-65
2024/03/17 09:38:07;;;;;;;3.20;1.35;;;11.30;75.30;;;;;;5026876;28;20341;-69
2024/03/17 09:40:33;;;;;;;1.42;0.90;;;;;;;;;;5018662;28;20373;-66
2024/03/17 09:42:59;;;;;;;3.75;1.42;;;11.30;68.10;;;;;;5022302;28;20112;-66
2024/03/17 09:45:29;;;;;;;2.90;1.70;;;11.50;74.10;;;;;;5022032;28;20064;-65
2024/03/17 09:48:01;;;;;;;9.05;2.08;;;11.60;68.20;;;;;;5018758;28;20033;-67
2024/03/17 09:50:27;;;;;;;4.15;1.88;;;11.40;75.00;;;;;;5019528;28;20030;-65
2024/03/17 09:52:53;;;;;;;3.17;1.30;;;11.60;58.20;;;;;;5026278;28;20048;-65
2024/03/17 09:55:19;;;;;;;5.00;1.50;;;11.70;76.00;;;;;;5024029;28;20033;-66
2024/03/17 09:57:46;;;;;;;8.70;2.08;;;11.80;57.50;;;;;;5023877;28;20099;-65
2024/03/17 10:00:15;;;;;;;7.65;1.83;;;12.00;56.50;;;;;;5018229;28;20434;-66
2024/03/17 10:02:47;;;;;;;7.85;1.38;;;12.00;55.50;;;;;;5021373;28;20315;-66
2024/03/17 10:05:22;;;;;;;4.20;1.30;;;12.10;73.90;;;;;;5019491;28;20041;-66
2024/03/17 10:07:49;;;;;;;4.85;1.70;;;12.10;54.70;;;;;;5019306;28;20100;-67
2024/03/17 10:10:18;;;;;;;5.00;1.85;;;12.30;54.90;;;;;;5025878;28;20057;-68
2024/03/17 10:12:51;;;;;;;4.38;1.73;;;12.40;74.70;;;;;;5024192;28;20065;-64
2024/03/17 10:15:17;;;;;;;3.70;1.50;;;12.50;73.40;;;;;;5019376;28;20026;-64
2024/03/17 10:17:43;;;;;;;2.55;1.50;;;12.70;71.50;;;;;;5018942;28;20036;-64
2024/03/17 10:20:17;;;;;;;4.63;2.78;;;12.60;53.50;;;;;;5021234;28;20061;-64
2024/03/17 10:22:59;;;;;;;6.22;1.83;;;12.60;53.00;;;;;;5020876;28;20025;-64
2024/03/17 10:25:26;;;;;;;5.47;1.63;;;12.60;53.50;;;;;;5025590;28;20059;-64
2024/03/17 10:27:52;;;;;;;4.15;1.90;;;12.60;53.50;;;;;;5031364;28;20029;-65
2024/03/17 10:30:19;;;;;;;3.53;1.65;;;12.80;72.70;;;;;;5031649;28;20318;-64
2024/03/17 10:32:46;;;;;;;2.80;1.60;;;12.50;52.80;;;;;;5023808;28;20041;-64
2024/03/17 10:35:33;;;;;;;6.05;2.75;;;12.60;71.30;;;;;;5028827;28;20337;-66
2024/03/17 10:38:04;;;;;;;8.43;1.83;;;12.60;70.70;;;;;;5031779;28;20105;-65
2024/03/17 10:40:31;;;;;;;5.60;1.70;;;12.50;51.80;;;;;;5022856;28;20050;-65
2024/03/17 10:42:58;;;;;;;4.30;2.38;;;12.60;52.70;;;;;;5025372;28;20088;-65
2024/03/17 10:45:25;;;;;;;4.38;2.22;;;12.60;52.40;;;;;;5022891;28;20049;-67
2024/03/17 10:47:52;;;;;;;2.47;1.60;;;12.40;68.60;;;;;;5031611;28;20063;-65
2024/03/17 10:50:26;;;;;;;4.53;1.60;;;12.50;69.20;;;;;;5024823;28;20045;-64
2024/03/17 10:52:55;;;;;;;2.90;1.02;;;12.30;68.90;;;;;;5032929;28;20048;-64
2024/03/17 10:55:25;;;;;;;3.60;1.38;;;12.50;68.80;;;;;;5022781;28;20026;-65
2024/03/17 10:57:58;;;;;;;4.28;1.92;;;12.50;69.10;;;;;;5024217;28;20105;-65
2024/03/17 11:00:25;;;;;;;4.05;1.77;;;12.50;69.10;;;;;;5022759;28;20030;-65
2024/03/17 11:02:55;;;;;;;2.25;1.40;;;12.70;51.70;;;;;;5031751;28;20338;-65
2024/03/17 11:05:24;;;;;;;3.25;1.73;;;12.90;68.80;;;;;;5030764;28;20346;-64
2024/03/17 11:08:01;;;;;;;5.32;2.30;;;12.90;51.90;;;;;;5022436;28;20030;-64
2024/03/17 11:10:36;;;;;;;2.40;1.52;;;13.00;51.80;;;;;;5024943;28;20093;-65
2024/03/17 11:13:03;;;;;;;1.83;1.25;;;13.20;51.00;;;;;;5024652;28;20030;-64
2024/03/17 11:15:38;;;;;;;3.65;1.20;;;13.20;50.30;;;;;;5024778;28;20079;-64
2024/03/17 11:18:10;;;;;;;4.60;1.73;;;13.30;50.40;;;;;;5022638;28;20326;-65
2024/03/17 11:20:39;;;;;;;4.95;1.88;;;13.40;50.30;;;;;;5037779;28;20043;-65
2024/03/17 11:23:06;;;;;;;3.70;1.88;;;13.40;48.80;;;;;;5022453;28;20025;-66
2024/03/17 11:25:33;;;;;;;3.72;1.95;;;13.50;49.30;;;;;;5020825;28;20029;-65
2024/03/17 11:28:00;;;;;;;4.35;1.85;;;13.50;65.90;;;;;;5022957;28;20032;-69
2024/03/17 11:30:57;;;;;;;5.97;2.83;;;13.00;65.10;;;;;;5023034;28;20029;-69
2024/03/17 11:33:35;;;;;;;5.00;2.00;;;13.10;49.10;;;;;;5024598;28;20424;-64
2024/03/17 11:36:25;;;;;;;2.95;1.30;;;13.40;64.30;;;;;;5022862;28;20381;-71
2024/03/17 11:39:02;;;;;;;2.22;1.42;;;13.20;48.60;;;;;;5036119;28;20099;-70
2024/03/17 11:41:34;;;;;;;4.65;1.75;;;13.30;48.20;;;;;;5031335;28;20300;-71
2024/03/17 11:44:18;;;;;;;11.75;1.67;;;13.70;48.60;;;;;;5036455;28;20022;-70
2024/03/17 11:46:51;;;;;;;4.15;1.63;;;13.40;63.10;;;;;;5038225;28;20040;-71
2024/03/17 11:49:27;;;;;;;2.28;1.25;;;13.60;65.20;;;;;;5036015;28;20108;-71
2024/03/17 11:51:58;;;;;;;5.10;2.03;;;13.70;47.60;;;;;;5039299;28;20112;-67
2024/03/17 11:54:29;;;;;;;4.70;1.20;;;13.60;46.50;;;;;;5037670;28;20025;-65
2024/03/17 11:57:02;;;;;;;3.03;1.20;;;13.70;62.80;;;;;;5037484;28;20041;-66
2024/03/17 11:59:29;;;;;;;5.05;1.30;;;13.70;47.10;;;;;;5034827;28;20054;-66
2024/03/17 12:01:55;;;;;;;3.85;1.38;;;13.70;47.50;;;;;;5032121;28;20037;-69
2024/03/17 12:04:23;;;;;;;3.67;1.23;;;13.80;46.80;;;;;;5032043;28;20052;-66
2024/03/17 12:06:50;;;;;;;4.10;1.38;;;13.80;46.60;;;;;;5021551;28;20380;-65
2024/03/17 12:09:15;;;;;;;1.13;0.70;;;13.80;46.00;;;;;;5029668;28;20034;-67
2024/03/17 12:11:41;;;;;;;4.50;1.40;;;13.70;46.00;;;;;;5029801;28;20063;-65
2024/03/17 12:14:19;;;;;;;5.72;1.65;;;14.00;67.60;;;;;;5027440;28;20208;-64
2024/03/17 12:16:53;;;;;;;1.17;0.80;;;13.80;44.90;;;;;;5030713;28;20036;-68
2024/03/17 12:19:19;;;;;;;2.72;0.75;;;13.70;44.70;;;;;;5030323;28;20275;-64
2024/03/17 12:21:47;;;;;;;0.80;0.57;;;13.80;43.60;;;;;;5032003;28;20368;-63
2024/03/17 12:24:19;;;;;;;3.47;1.37;;;13.80;44.50;;;;;;5025091;28;20037;-64
2024/03/17 12:26:46;;;;;;;2.03;1.35;;;13.90;69.10;;;;;;5029336;28;20029;-64
2024/03/17 12:29:40;;;;;;;4.70;1.00;;;13.90;45.00;;;;;;5029350;28;20041;-64
2024/03/17 12:32:16;;;;;;;2.97;1.63;;;14.10;43.80;;;;;;5020973;28;20030;-64
2024/03/17 12:34:43;;;;;;;3.08;1.20;;;14.10;44.10;;;;;;5020786;28;20057;-65
2024/03/17 12:37:18;;;;;;;10.85;1.15;;;14.10;44.20;;;;;;5027025;28;20055;-70
2024/03/17 12:39:44;;;;;;;3.42;1.30;;;14.20;43.50;;;;;;5026599;28;20057;-64
2024/03/17 12:42:11;;;;;;;2.55;1.00;;;14.00;42.90;;;;;;5030246;28;20033;-65
2024/03/17 12:44:57;;;;;;;4.25;1.17;;;13.80;43.10;;;;;;5020802;28;20030;-65
2024/03/17 12:47:30;;;;;;;1.77;1.10;;;13.80;43.20;;;;;;5026378;28;20026;-65
2024/03/17 12:50:00;;;;;;;2.13;0.85;;;13.90;43.10;;;;;;5020303;28;20045;-63
2024/03/17 12:52:35;;;;;;;2.05;0.95;;;14.00;42.80;;;;;;5014454;28;20137;-64
2024/03/17 13:00:46;;;;;;;3.55;1.15;;;15.10;52.90;;;;;;5025978;28;20036;-64
2024/03/17 13:03:24;;;;;;;1.85;1.20;;;15.00;43.80;;;;;;5029010;28;20271;-65
2024/03/17 13:05:51;;;;;;;2.88;1.08;;;17.80;41.70;;;;;;5020472;28;20101;-65
2024/03/17 13:08:17;;;;;;;2.85;1.40;;;23.80;35.80;;;;;;5020419;28;20053;-65
2024/03/17 13:10:44;;;;;;;3.35;1.50;;;27.70;31.80;;;;;;5022713;28;20034;-65
2024/03/17 13:13:15;;;;;;;2.58;1.40;;;29.70;28.80;;;;;;5024064;28;20253;-65
2024/03/17 13:15:42;;;;;;;5.45;1.88;;;31.60;27.70;;;;;;5019950;28;20037;-66